sensor_id;sensor_type;location;lat;lon;timestamp;temperature;humidity
72576;DHT22;60613;48.658;2.328;2023-02-05T07:02:35;20.90;37.20
72576;DHT22;60613;48.658;2.328;2023-02-05T07:05:01;20.80;38.10
72576;DHT22;60613;48.658;2.328;2023-02-05T07:07:27;20.90;38.10
72576;DHT22;60613;48.658;2.328;2023-02-05T07:09:53;20.90;37.90
72576;DHT22;60613;48.658;2.328;2023-02-05T07:12:18;21.00;37.80
72576;DHT22;60613;48.658;2.328;2023-02-05T07:14:44;21.00;38.90
72576;DHT22;60613;48.658;2.328;2023-02-05T07:17:10;21.10;37.70
72576;DHT22;60613;48.658;2.328;2023-02-05T07:19:36;21.10;37.60
72576;DHT22;60613;48.658;2.328;2023-02-05T07:22:02;21.10;37.40
72576;DHT22;60613;48.658;2.328;2023-02-05T07:24:28;21.10;37.30
72576;DHT22;60613;48.658;2.328;2023-02-05T07:26:53;21.20;37.30
72576;DHT22;60613;48.658;2.328;2023-02-05T07:29:19;21.20;37.20
72576;DHT22;60613;48.658;2.328;2023-02-05T07:31:45;21.20;37.20
72576;DHT22;60613;48.658;2.328;2023-02-05T07:34:10;21.20;37.20
72576;DHT22;60613;48.658;2.328;2023-02-05T07:36:36;21.20;37.20
72576;DHT22;60613;48.658;2.328;2023-02-05T07:39:02;21.20;37.20
72576;DHT22;60613;48.658;2.328;2023-02-05T07:41:28;21.20;37.10
72576;DHT22;60613;48.658;2.328;2023-02-05T07:43:54;21.10;37.60
72576;DHT22;60613;48.658;2.328;2023-02-05T07:46:20;21.10;37.90
72576;DHT22;60613;48.658;2.328;2023-02-05T07:48:46;21.20;38.00
72576;DHT22;60613;48.658;2.328;2023-02-05T07:51:20;21.20;38.10
72576;DHT22;60613;48.658;2.328;2023-02-05T07:53:47;21.30;38.10
72576;DHT22;60613;48.658;2.328;2023-02-05T07:56:12;21.30;38.10
72576;DHT22;60613;48.658;2.328;2023-02-05T07:58:39;21.40;38.00
72576;DHT22;60613;48.658;2.328;2023-02-05T08:01:05;21.40;38.20
72576;DHT22;60613;48.658;2.328;2023-02-05T08:03:31;21.40;38.30
72576;DHT22;60613;48.658;2.328;2023-02-05T08:05:57;21.40;38.00
72576;DHT22;60613;48.658;2.328;2023-02-05T08:08:23;21.40;37.30
72576;DHT22;60613;48.658;2.328;2023-02-05T08:11:00;21.50;37.30
72576;DHT22;60613;48.658;2.328;2023-02-05T08:13:26;21.50;37.30
72576;DHT22;60613;48.658;2.328;2023-02-05T08:15:52;21.50;37.20
72576;DHT22;60613;48.658;2.328;2023-02-05T08:18:18;21.50;37.20
72576;DHT22;60613;48.658;2.328;2023-02-05T08:20:44;21.50;37.00
72576;DHT22;60613;48.658;2.328;2023-02-05T08:23:10;21.50;37.10
72576;DHT22;60613;48.658;2.328;2023-02-05T08:25:37;21.60;36.90
72576;DHT22;60613;48.658;2.328;2023-02-05T08:28:03;21.60;36.60
72576;DHT22;60613;48.658;2.328;2023-02-05T08:30:29;21.70;36.50
72576;DHT22;60613;48.658;2.328;2023-02-05T08:32:55;21.60;36.40
72576;DHT22;60613;48.658;2.328;2023-02-05T08:35:20;21.60;36.40
72576;DHT22;60613;48.658;2.328;2023-02-05T08:37:46;21.70;36.30
72576;DHT22;60613;48.658;2.328;2023-02-05T08:40:12;21.60;35.00
72576;DHT22;60613;48.658;2.328;2023-02-05T08:42:37;21.50;35.00
72576;DHT22;60613;48.658;2.328;2023-02-05T08:45:03;21.40;34.70
72576;DHT22;60613;48.658;2.328;2023-02-05T08:47:34;21.40;34.60
72576;DHT22;60613;48.658;2.328;2023-02-05T08:50:00;21.30;34.60
72576;DHT22;60613;48.658;2.328;2023-02-05T08:52:26;21.30;34.70
72576;DHT22;60613;48.658;2.328;2023-02-05T08:54:51;21.20;34.80
72576;DHT22;60613;48.658;2.328;2023-02-05T08:57:17;21.10;34.80
72576;DHT22;60613;48.658;2.328;2023-02-05T08:59:43;21.10;35.10
72576;DHT22;60613;48.658;2.328;2023-02-05T09:02:15;21.10;35.20
72576;DHT22;60613;48.658;2.328;2023-02-05T09:04:41;21.10;35.40
72576;DHT22;60613;48.658;2.328;2023-02-05T09:07:07;21.10;36.00
72576;DHT22;60613;48.658;2.328;2023-02-05T09:09:32;21.10;36.00
72576;DHT22;60613;48.658;2.328;2023-02-05T09:11:59;21.10;36.00
72576;DHT22;60613;48.658;2.328;2023-02-05T09:14:25;21.20;36.00
72576;DHT22;60613;48.658;2.328;2023-02-05T09:16:51;21.20;36.10
72576;DHT22;60613;48.658;2.328;2023-02-05T09:19:17;21.20;36.20
72576;DHT22;60613;48.658;2.328;2023-02-05T09:21:42;21.20;36.30
72576;DHT22;60613;48.658;2.328;2023-02-05T09:24:08;21.30;36.60
72576;DHT22;60613;48.658;2.328;2023-02-05T09:26:34;21.40;36.60
72576;DHT22;60613;48.658;2.328;2023-02-05T09:29:00;21.40;36.50
72576;DHT22;60613;48.658;2.328;2023-02-05T09:31:25;21.40;36.50
72576;DHT22;60613;48.658;2.328;2023-02-05T09:33:51;21.40;36.60
72576;DHT22;60613;48.658;2.328;2023-02-05T09:36:19;21.40;36.50
72576;DHT22;60613;48.658;2.328;2023-02-05T09:38:45;21.40;36.50
72576;DHT22;60613;48.658;2.328;2023-02-05T09:43:50;21.50;36.80
72576;DHT22;60613;48.658;2.328;2023-02-05T09:47:05;21.50;37.10
72576;DHT22;60613;48.658;2.328;2023-02-05T09:50:05;21.60;37.50
72576;DHT22;60613;48.658;2.328;2023-02-05T09:52:38;21.60;37.40
72576;DHT22;60613;48.658;2.328;2023-02-05T09:55:19;21.60;37.50
72576;DHT22;60613;48.658;2.328;2023-02-05T09:57:48;21.60;37.50
72576;DHT22;60613;48.658;2.328;2023-02-05T10:00:47;21.70;38.70
72576;DHT22;60613;48.658;2.328;2023-02-05T10:11:30;21.60;37.50
72576;DHT22;60613;48.658;2.328;2023-02-05T10:17:43;21.60;37.70
72576;DHT22;60613;48.658;2.328;2023-02-05T10:20:32;21.70;37.50
72576;DHT22;60613;48.658;2.328;2023-02-05T10:23:15;21.70;37.50
72576;DHT22;60613;48.658;2.328;2023-02-05T10:26:03;21.70;38.60
72576;DHT22;60613;48.658;2.328;2023-02-05T10:34:27;21.80;37.20
72576;DHT22;60613;48.658;2.328;2023-02-05T10:36:55;21.80;37.10
72576;DHT22;60613;48.658;2.328;2023-02-05T10:39:24;21.80;37.00
72576;DHT22;60613;48.658;2.328;2023-02-05T10:42:01;21.80;37.00
72576;DHT22;60613;48.658;2.328;2023-02-05T10:44:37;21.90;37.10
72576;DHT22;60613;48.658;2.328;2023-02-05T10:47:12;21.90;37.10
72576;DHT22;60613;48.658;2.328;2023-02-05T10:49:52;21.80;36.90
72576;DHT22;60613;48.658;2.328;2023-02-05T10:52:19;21.90;36.90
72576;DHT22;60613;48.658;2.328;2023-02-05T10:54:45;21.90;36.90
72576;DHT22;60613;48.658;2.328;2023-02-05T10:57:16;21.90;36.80
72576;DHT22;60613;48.658;2.328;2023-02-05T10:59:57;21.90;36.80
72576;DHT22;60613;48.658;2.328;2023-02-05T11:02:37;21.90;36.70
72576;DHT22;60613;48.658;2.328;2023-02-05T11:05:19;21.90;36.70
72576;DHT22;60613;48.658;2.328;2023-02-05T11:07:48;21.90;36.80
72576;DHT22;60613;48.658;2.328;2023-02-05T11:10:21;21.90;36.70
72576;DHT22;60613;48.658;2.328;2023-02-05T11:13:34;21.90;36.70
72576;DHT22;60613;48.658;2.328;2023-02-05T11:15:34;21.90;36.80
72576;DHT22;60613;48.658;2.328;2023-02-05T11:18:06;21.90;36.60
72576;DHT22;60613;48.658;2.328;2023-02-05T11:20:54;21.90;36.60
72576;DHT22;60613;48.658;2.328;2023-02-05T11:23:26;21.90;36.50
72576;DHT22;60613;48.658;2.328;2023-02-05T11:25:53;21.90;36.60
72576;DHT22;60613;48.658;2.328;2023-02-05T11:28:30;21.90;36.50
72576;DHT22;60613;48.658;2.328;2023-02-05T11:30:57;21.90;36.50
72576;DHT22;60613;48.658;2.328;2023-02-05T11:33:42;21.90;36.70
72576;DHT22;60613;48.658;2.328;2023-02-05T11:36:15;21.90;36.60
72576;DHT22;60613;48.658;2.328;2023-02-05T11:38:53;21.90;36.70
72576;DHT22;60613;48.658;2.328;2023-02-05T11:41:32;21.90;36.60
72576;DHT22;60613;48.658;2.328;2023-02-05T11:44:30;21.90;36.60
72576;DHT22;60613;48.658;2.328;2023-02-05T11:46:58;21.90;36.50
72576;DHT22;60613;48.658;2.328;2023-02-05T11:49:34;21.90;36.50
72576;DHT22;60613;48.658;2.328;2023-02-05T11:52:08;21.90;36.40
72576;DHT22;60613;48.658;2.328;2023-02-05T11:54:35;21.90;36.50
72576;DHT22;60613;48.658;2.328;2023-02-05T11:57:34;21.90;36.60
72576;DHT22;60613;48.658;2.328;2023-02-05T12:00:19;21.90;36.60
72576;DHT22;60613;48.658;2.328;2023-02-05T12:02:45;21.90;36.60
72576;DHT22;60613;48.658;2.328;2023-02-05T12:07:49;22.00;36.50
72576;DHT22;60613;48.658;2.328;2023-02-05T12:15:28;22.00;36.60
72576;DHT22;60613;48.658;2.328;2023-02-05T12:18:12;22.00;36.50
72576;DHT22;60613;48.658;2.328;2023-02-05T12:21:02;22.10;36.50
72576;DHT22;60613;48.658;2.328;2023-02-05T12:34:41;22.10;36.30
72576;DHT22;60613;48.658;2.328;2023-02-05T12:43:03;22.00;36.20
72576;DHT22;60613;48.658;2.328;2023-02-05T12:45:43;22.00;36.20
72576;DHT22;60613;48.658;2.328;2023-02-05T12:50:52;22.00;36.20
72576;DHT22;60613;48.658;2.328;2023-02-05T12:58:53;22.00;36.10
72576;DHT22;60613;48.658;2.328;2023-02-05T13:01:34;22.00;36.10
72576;DHT22;60613;48.658;2.328;2023-02-05T13:04:01;22.00;36.00
72576;DHT22;60613;48.658;2.328;2023-02-05T13:06:43;22.00;36.00
72576;DHT22;60613;48.658;2.328;2023-02-05T13:09:18;22.00;35.90
72576;DHT22;60613;48.658;2.328;2023-02-05T13:11:59;22.00;35.90
72576;DHT22;60613;48.658;2.328;2023-02-05T13:14:35;22.00;36.00
72576;DHT22;60613;48.658;2.328;2023-02-05T13:17:16;22.00;36.00
72576;DHT22;60613;48.658;2.328;2023-02-05T13:19:58;22.00;36.00
72576;DHT22;60613;48.658;2.328;2023-02-05T13:22:29;22.00;35.80
72576;DHT22;60613;48.658;2.328;2023-02-05T13:31:17;22.00;35.80
72576;DHT22;60613;48.658;2.328;2023-02-05T13:33:45;22.00;35.90
72576;DHT22;60613;48.658;2.328;2023-02-05T13:39:24;22.00;35.80
72576;DHT22;60613;48.658;2.328;2023-02-05T13:50:03;22.00;35.70
72576;DHT22;60613;48.658;2.328;2023-02-05T13:58:21;22.00;35.70
72576;DHT22;60613;48.658;2.328;2023-02-05T14:01:14;22.00;35.50
72576;DHT22;60613;48.658;2.328;2023-02-05T14:04:24;22.00;35.60
72576;DHT22;60613;48.658;2.328;2023-02-05T14:07:13;22.10;35.60
72576;DHT22;60613;48.658;2.328;2023-02-05T14:09:43;22.10;35.60
72576;DHT22;60613;48.658;2.328;2023-02-05T14:12:27;22.00;35.60
72576;DHT22;60613;48.658;2.328;2023-02-05T14:22:52;22.00;35.40
72576;DHT22;60613;48.658;2.328;2023-02-05T14:33:40;22.00;35.90
72576;DHT22;60613;48.658;2.328;2023-02-05T14:39:03;22.00;35.40
72576;DHT22;60613;48.658;2.328;2023-02-05T14:44:14;22.00;35.50
72576;DHT22;60613;48.658;2.328;2023-02-05T14:49:44;22.00;36.80
72576;DHT22;60613;48.658;2.328;2023-02-05T14:52:34;22.00;35.70
72576;DHT22;60613;48.658;2.328;2023-02-05T14:57:58;21.90;35.70
72576;DHT22;60613;48.658;2.328;2023-02-05T15:00:39;22.00;35.70
72576;DHT22;60613;48.658;2.328;2023-02-05T15:13:16;22.00;35.40
72576;DHT22;60613;48.658;2.328;2023-02-05T15:16:07;21.90;35.20
72576;DHT22;60613;48.658;2.328;2023-02-05T15:18:43;22.00;34.90
72576;DHT22;60613;48.658;2.328;2023-02-05T15:21:30;21.90;35.30
72576;DHT22;60613;48.658;2.328;2023-02-05T15:24:04;21.90;35.80
72576;DHT22;60613;48.658;2.328;2023-02-05T15:29:19;21.90;35.90
72576;DHT22;60613;48.658;2.328;2023-02-05T15:31:49;21.90;35.90
72576;DHT22;60613;48.658;2.328;2023-02-05T15:36:51;21.90;35.70
72576;DHT22;60613;48.658;2.328;2023-02-05T15:41:51;22.00;35.70
72576;DHT22;60613;48.658;2.328;2023-02-05T15:44:25;22.00;35.70
72576;DHT22;60613;48.658;2.328;2023-02-05T15:46:52;21.90;35.60
72576;DHT22;60613;48.658;2.328;2023-02-05T15:49:28;22.00;35.60
72576;DHT22;60613;48.658;2.328;2023-02-05T15:51:54;22.00;35.60
72576;DHT22;60613;48.658;2.328;2023-02-05T15:54:20;22.00;35.70
72576;DHT22;60613;48.658;2.328;2023-02-05T15:56:50;22.00;35.60
72576;DHT22;60613;48.658;2.328;2023-02-05T15:59:23;22.00;35.60
72576;DHT22;60613;48.658;2.328;2023-02-05T16:04:28;22.00;35.60
72576;DHT22;60613;48.658;2.328;2023-02-05T16:06:55;22.00;35.60
72576;DHT22;60613;48.658;2.328;2023-02-05T16:09:25;22.00;35.70
72576;DHT22;60613;48.658;2.328;2023-02-05T16:11:51;22.00;35.60
72576;DHT22;60613;48.658;2.328;2023-02-05T16:14:19;22.00;35.60
72576;DHT22;60613;48.658;2.328;2023-02-05T16:17:07;22.00;35.70
72576;DHT22;60613;48.658;2.328;2023-02-05T16:22:24;22.00;35.80
72576;DHT22;60613;48.658;2.328;2023-02-05T16:24:56;22.00;36.00
72576;DHT22;60613;48.658;2.328;2023-02-05T16:27:34;21.90;37.30
72576;DHT22;60613;48.658;2.328;2023-02-05T16:30:06;21.90;36.00
72576;DHT22;60613;48.658;2.328;2023-02-05T16:32:39;21.90;36.00
72576;DHT22;60613;48.658;2.328;2023-02-05T16:37:43;21.90;35.70
72576;DHT22;60613;48.658;2.328;2023-02-05T16:40:10;21.90;35.90
72576;DHT22;60613;48.658;2.328;2023-02-05T16:42:40;21.90;35.90
72576;DHT22;60613;48.658;2.328;2023-02-05T16:47:34;21.90;36.00
72576;DHT22;60613;48.658;2.328;2023-02-05T16:50:00;21.90;35.90
72576;DHT22;60613;48.658;2.328;2023-02-05T16:52:31;21.90;36.00
72576;DHT22;60613;48.658;2.328;2023-02-05T16:54:58;21.90;35.80
72576;DHT22;60613;48.658;2.328;2023-02-05T16:57:29;21.90;35.90
72576;DHT22;60613;48.658;2.328;2023-02-05T17:00:05;21.90;37.10
72576;DHT22;60613;48.658;2.328;2023-02-05T17:02:36;21.90;36.10
72576;DHT22;60613;48.658;2.328;2023-02-05T17:05:06;21.80;35.90
72576;DHT22;60613;48.658;2.328;2023-02-05T17:07:33;21.80;35.90
72576;DHT22;60613;48.658;2.328;2023-02-05T17:10:18;21.80;36.00
72576;DHT22;60613;48.658;2.328;2023-02-05T17:12:59;21.80;36.00
72576;DHT22;60613;48.658;2.328;2023-02-05T17:15:39;21.80;36.10
72576;DHT22;60613;48.658;2.328;2023-02-05T17:20:43;21.80;36.10
72576;DHT22;60613;48.658;2.328;2023-02-05T17:23:12;21.80;36.10
72576;DHT22;60613;48.658;2.328;2023-02-05T17:25:54;21.80;36.10
72576;DHT22;60613;48.658;2.328;2023-02-05T17:28:23;21.80;36.10
72576;DHT22;60613;48.658;2.328;2023-02-05T17:30:51;21.80;36.10
72576;DHT22;60613;48.658;2.328;2023-02-05T17:33:22;21.80;36.00
72576;DHT22;60613;48.658;2.328;2023-02-05T17:35:48;21.80;36.10
72576;DHT22;60613;48.658;2.328;2023-02-05T17:38:15;21.80;36.10
72576;DHT22;60613;48.658;2.328;2023-02-05T17:40:41;21.80;36.10
72576;DHT22;60613;48.658;2.328;2023-02-05T17:43:07;21.80;36.00
72576;DHT22;60613;48.658;2.328;2023-02-05T17:45:35;21.80;36.10
72576;DHT22;60613;48.658;2.328;2023-02-05T17:48:01;21.80;36.00
72576;DHT22;60613;48.658;2.328;2023-02-05T17:50:27;21.80;36.00
72576;DHT22;60613;48.658;2.328;2023-02-05T17:52:53;21.80;36.10
72576;DHT22;60613;48.658;2.328;2023-02-05T17:55:21;21.80;36.00
72576;DHT22;60613;48.658;2.328;2023-02-05T17:57:47;21.80;36.00
72576;DHT22;60613;48.658;2.328;2023-02-05T18:00:21;21.80;36.30
72576;DHT22;60613;48.658;2.328;2023-02-05T18:02:47;21.80;36.10
72576;DHT22;60613;48.658;2.328;2023-02-05T18:05:13;21.80;35.90
72576;DHT22;60613;48.658;2.328;2023-02-05T18:07:48;21.80;35.90
72576;DHT22;60613;48.658;2.328;2023-02-05T18:10:21;21.80;35.90
72576;DHT22;60613;48.658;2.328;2023-02-05T18:12:48;21.80;35.80
72576;DHT22;60613;48.658;2.328;2023-02-05T18:15:13;21.80;35.70
72576;DHT22;60613;48.658;2.328;2023-02-05T18:17:39;21.80;35.60
72576;DHT22;60613;48.658;2.328;2023-02-05T18:20:06;21.80;35.60
72576;DHT22;60613;48.658;2.328;2023-02-05T18:22:33;21.80;35.50
72576;DHT22;60613;48.658;2.328;2023-02-05T18:24:59;21.90;35.40
72576;DHT22;60613;48.658;2.328;2023-02-05T18:27:25;21.90;35.40
72576;DHT22;60613;48.658;2.328;2023-02-05T18:29:51;21.90;35.40
72576;DHT22;60613;48.658;2.328;2023-02-05T18:32:17;21.90;35.30
72576;DHT22;60613;48.658;2.328;2023-02-05T18:34:42;21.90;35.30
72576;DHT22;60613;48.658;2.328;2023-02-05T18:37:08;21.90;35.20
72576;DHT22;60613;48.658;2.328;2023-02-05T18:39:34;21.90;35.20
72576;DHT22;60613;48.658;2.328;2023-02-05T18:41:59;22.00;35.20
72576;DHT22;60613;48.658;2.328;2023-02-05T18:44:26;21.90;35.20
72576;DHT22;60613;48.658;2.328;2023-02-05T18:46:52;21.90;35.20
72576;DHT22;60613;48.658;2.328;2023-02-05T18:49:18;21.90;35.20
72576;DHT22;60613;48.658;2.328;2023-02-05T18:51:44;21.90;35.20
72576;DHT22;60613;48.658;2.328;2023-02-05T18:54:10;21.90;35.40
72576;DHT22;60613;48.658;2.328;2023-02-05T18:56:36;21.90;35.40
72576;DHT22;60613;48.658;2.328;2023-02-05T18:59:04;21.90;35.40
72576;DHT22;60613;48.658;2.328;2023-02-05T19:01:35;21.80;35.50
72576;DHT22;60613;48.658;2.328;2023-02-05T19:04:05;21.80;35.50
72576;DHT22;60613;48.658;2.328;2023-02-05T19:06:30;21.80;35.50
72576;DHT22;60613;48.658;2.328;2023-02-05T19:08:57;21.80;35.60
72576;DHT22;60613;48.658;2.328;2023-02-05T19:11:24;21.80;35.70
72576;DHT22;60613;48.658;2.328;2023-02-05T19:14:17;21.80;35.70
72576;DHT22;60613;48.658;2.328;2023-02-05T19:16:44;21.80;35.70
72576;DHT22;60613;48.658;2.328;2023-02-05T19:19:13;21.80;35.50
72576;DHT22;60613;48.658;2.328;2023-02-05T19:21:39;21.80;35.50
72576;DHT22;60613;48.658;2.328;2023-02-05T19:24:05;21.80;36.10
72576;DHT22;60613;48.658;2.328;2023-02-05T19:26:34;21.80;35.70
72576;DHT22;60613;48.658;2.328;2023-02-05T19:29:01;21.80;35.70
72576;DHT22;60613;48.658;2.328;2023-02-05T19:31:31;21.80;35.70
72576;DHT22;60613;48.658;2.328;2023-02-05T19:33:57;21.80;35.80
72576;DHT22;60613;48.658;2.328;2023-02-05T19:36:23;21.90;35.90
72576;DHT22;60613;48.658;2.328;2023-02-05T19:38:49;21.80;35.80
72576;DHT22;60613;48.658;2.328;2023-02-05T19:41:18;21.80;35.70
72576;DHT22;60613;48.658;2.328;2023-02-05T19:43:50;21.80;35.90
72576;DHT22;60613;48.658;2.328;2023-02-05T19:46:19;21.80;35.80
72576;DHT22;60613;48.658;2.328;2023-02-05T19:48:45;21.80;35.70
72576;DHT22;60613;48.658;2.328;2023-02-05T19:51:12;21.80;35.80
72576;DHT22;60613;48.658;2.328;2023-02-05T19:53:39;21.80;35.80
72576;DHT22;60613;48.658;2.328;2023-02-05T19:56:07;21.80;35.70
72576;DHT22;60613;48.658;2.328;2023-02-05T19:58:37;21.80;35.60
72576;DHT22;60613;48.658;2.328;2023-02-05T20:01:30;21.80;36.80
72576;DHT22;60613;48.658;2.328;2023-02-05T20:04:04;21.90;35.70
72576;DHT22;60613;48.658;2.328;2023-02-05T20:06:30;21.80;35.60
72576;DHT22;60613;48.658;2.328;2023-02-05T20:08:56;21.80;35.70
72576;DHT22;60613;48.658;2.328;2023-02-05T20:11:24;21.80;35.60
72576;DHT22;60613;48.658;2.328;2023-02-05T20:13:49;21.80;35.60
72576;DHT22;60613;48.658;2.328;2023-02-05T20:16:20;21.80;35.60
72576;DHT22;60613;48.658;2.328;2023-02-05T20:18:51;21.90;35.60
72576;DHT22;60613;48.658;2.328;2023-02-05T20:21:17;21.90;35.50
72576;DHT22;60613;48.658;2.328;2023-02-05T20:23:44;21.80;35.40
72576;DHT22;60613;48.658;2.328;2023-02-05T20:26:09;21.80;35.50
72576;DHT22;60613;48.658;2.328;2023-02-05T20:28:38;21.80;35.50
72576;DHT22;60613;48.658;2.328;2023-02-05T20:31:25;21.80;35.50
72576;DHT22;60613;48.658;2.328;2023-02-05T20:34:07;21.80;35.50
72576;DHT22;60613;48.658;2.328;2023-02-05T20:36:34;21.80;35.60
72576;DHT22;60613;48.658;2.328;2023-02-05T20:39:02;21.80;35.50
72576;DHT22;60613;48.658;2.328;2023-02-05T20:41:28;21.80;35.50
72576;DHT22;60613;48.658;2.328;2023-02-05T20:43:56;21.80;35.50
72576;DHT22;60613;48.658;2.328;2023-02-05T20:46:22;21.80;35.60
72576;DHT22;60613;48.658;2.328;2023-02-05T20:48:48;21.80;35.80
72576;DHT22;60613;48.658;2.328;2023-02-05T20:51:17;21.70;36.90
72576;DHT22;60613;48.658;2.328;2023-02-05T20:53:44;21.70;35.90
72576;DHT22;60613;48.658;2.328;2023-02-05T20:56:12;21.70;35.80
72576;DHT22;60613;48.658;2.328;2023-02-05T20:58:38;21.60;35.80
72576;DHT22;60613;48.658;2.328;2023-02-05T21:01:08;21.60;35.90
72576;DHT22;60613;48.658;2.328;2023-02-05T21:03:35;21.60;35.90
72576;DHT22;60613;48.658;2.328;2023-02-05T21:06:01;21.60;35.90
72576;DHT22;60613;48.658;2.328;2023-02-05T21:08:27;21.60;35.90
72576;DHT22;60613;48.658;2.328;2023-02-05T21:10:54;21.50;35.80
72576;DHT22;60613;48.658;2.328;2023-02-05T21:13:20;21.50;35.90
72576;DHT22;60613;48.658;2.328;2023-02-05T21:15:56;21.50;35.80
72576;DHT22;60613;48.658;2.328;2023-02-05T21:18:23;21.50;35.80
72576;DHT22;60613;48.658;2.328;2023-02-05T21:20:49;21.50;35.80
72576;DHT22;60613;48.658;2.328;2023-02-05T21:23:16;21.40;35.80
72576;DHT22;60613;48.658;2.328;2023-02-05T21:25:43;21.50;35.90
72576;DHT22;60613;48.658;2.328;2023-02-05T21:28:09;21.40;35.70
72576;DHT22;60613;48.658;2.328;2023-02-05T21:30:35;21.50;35.80
72576;DHT22;60613;48.658;2.328;2023-02-05T21:33:01;21.50;35.80
72576;DHT22;60613;48.658;2.328;2023-02-05T21:35:27;21.50;35.70
72576;DHT22;60613;48.658;2.328;2023-02-05T21:37:53;21.40;35.70
72576;DHT22;60613;48.658;2.328;2023-02-05T21:40:19;21.50;35.80
72576;DHT22;60613;48.658;2.328;2023-02-05T21:42:44;21.40;35.70
72576;DHT22;60613;48.658;2.328;2023-02-05T21:45:10;21.50;35.70
72576;DHT22;60613;48.658;2.328;2023-02-05T21:47:36;21.50;35.70
72576;DHT22;60613;48.658;2.328;2023-02-05T21:50:02;21.40;35.60
72576;DHT22;60613;48.658;2.328;2023-02-05T21:52:28;21.40;35.70
72576;DHT22;60613;48.658;2.328;2023-02-05T21:54:53;21.40;35.60
72576;DHT22;60613;48.658;2.328;2023-02-05T21:57:19;21.40;35.60
72576;DHT22;60613;48.658;2.328;2023-02-05T21:59:49;21.40;35.60
